sensor_id;sensor_type;location;lat;lon;timestamp;P1;durP1;ratioP1;P2;durP2;ratioP2
3841;SDS011;1936;47.074;15.336;2023-01-16T00:01:08;2.35;;;2.15;;
3841;SDS011;1936;47.074;15.336;2023-01-16T00:03:11;1.65;;;1.55;;
3841;SDS011;1936;47.074;15.336;2023-01-16T00:05:15;3.13;;;2.10;;
3841;SDS011;1936;47.074;15.336;2023-01-16T00:07:20;2.63;;;2.22;;
3841;SDS011;1936;47.074;15.336;2023-01-16T00:09:23;3.00;;;2.10;;
3841;SDS011;1936;47.074;15.336;2023-01-16T00:11:26;2.35;;;1.75;;
3841;SDS011;1936;47.074;15.336;2023-01-16T00:13:30;2.40;;;2.20;;
3841;SDS011;1936;47.074;15.336;2023-01-16T00:15:33;5.82;;;2.25;;
3841;SDS011;1936;47.074;15.336;2023-01-16T00:17:37;3.15;;;1.45;;
3841;SDS011;1936;47.074;15.336;2023-01-16T00:19:40;2.60;;;2.20;;
3841;SDS011;1936;47.074;15.336;2023-01-16T00:21:43;4.25;;;2.75;;
3841;SDS011;1936;47.074;15.336;2023-01-16T00:23:50;3.28;;;2.40;;
3841;SDS011;1936;47.074;15.336;2023-01-16T00:25:54;2.90;;;2.00;;
3841;SDS011;1936;47.074;15.336;2023-01-16T00:27:58;2.20;;;1.80;;
3841;SDS011;1936;47.074;15.336;2023-01-16T00:30:02;1.90;;;1.33;;
3841;SDS011;1936;47.074;15.336;2023-01-16T00:32:06;2.20;;;1.60;;
3841;SDS011;1936;47.074;15.336;2023-01-16T00:34:11;2.58;;;1.90;;
3841;SDS011;1936;47.074;15.336;2023-01-16T00:36:15;2.30;;;1.60;;
3841;SDS011;1936;47.074;15.336;2023-01-16T00:38:18;1.88;;;1.40;;
3841;SDS011;1936;47.074;15.336;2023-01-16T00:40:23;2.10;;;1.90;;
3841;SDS011;1936;47.074;15.336;2023-01-16T00:42:27;1.60;;;1.40;;
3841;SDS011;1936;47.074;15.336;2023-01-16T00:44:31;1.55;;;1.45;;
3841;SDS011;1936;47.074;15.336;2023-01-16T00:46:34;2.55;;;2.08;;
3841;SDS011;1936;47.074;15.336;2023-01-16T00:48:38;3.90;;;1.95;;
3841;SDS011;1936;47.074;15.336;2023-01-16T00:50:41;1.38;;;1.17;;
3841;SDS011;1936;47.074;15.336;2023-01-16T00:52:45;1.83;;;1.30;;
3841;SDS011;1936;47.074;15.336;2023-01-16T00:54:48;2.13;;;1.58;;
3841;SDS011;1936;47.074;15.336;2023-01-16T00:56:53;1.45;;;1.35;;
3841;SDS011;1936;47.074;15.336;2023-01-16T00:58:56;2.15;;;1.63;;
3841;SDS011;1936;47.074;15.336;2023-01-16T01:01:00;1.63;;;1.10;;
3841;SDS011;1936;47.074;15.336;2023-01-16T01:03:04;1.10;;;0.90;;
3841;SDS011;1936;47.074;15.336;2023-01-16T01:05:08;1.40;;;0.90;;
3841;SDS011;1936;47.074;15.336;2023-01-16T01:07:12;1.40;;;0.70;;
3841;SDS011;1936;47.074;15.336;2023-01-16T01:09:15;3.20;;;1.88;;
3841;SDS011;1936;47.074;15.336;2023-01-16T01:11:19;0.82;;;0.50;;
3841;SDS011;1936;47.074;15.336;2023-01-16T01:13:27;0.90;;;0.70;;
3841;SDS011;1936;47.074;15.336;2023-01-16T01:15:30;1.17;;;0.93;;
3841;SDS011;1936;47.074;15.336;2023-01-16T01:17:34;0.70;;;0.57;;
3841;SDS011;1936;47.074;15.336;2023-01-16T01:19:37;1.25;;;0.70;;
3841;SDS011;1936;47.074;15.336;2023-01-16T01:21:40;0.70;;;0.55;;
3841;SDS011;1936;47.074;15.336;2023-01-16T01:23:44;0.93;;;0.40;;
3841;SDS011;1936;47.074;15.336;2023-01-16T01:25:47;0.60;;;0.50;;
3841;SDS011;1936;47.074;15.336;2023-01-16T01:27:51;0.60;;;0.45;;
3841;SDS011;1936;47.074;15.336;2023-01-16T01:29:56;0.55;;;0.40;;
3841;SDS011;1936;47.074;15.336;2023-01-16T01:31:59;0.75;;;0.55;;
3841;SDS011;1936;47.074;15.336;2023-01-16T01:34:04;0.50;;;0.40;;
3841;SDS011;1936;47.074;15.336;2023-01-16T01:36:07;0.50;;;0.40;;
3841;SDS011;1936;47.074;15.336;2023-01-16T01:38:12;0.50;;;0.40;;
3841;SDS011;1936;47.074;15.336;2023-01-16T01:40:15;0.80;;;0.50;;
3841;SDS011;1936;47.074;15.336;2023-01-16T01:42:19;0.70;;;0.32;;
3841;SDS011;1936;47.074;15.336;2023-01-16T01:44:50;1.30;;;0.40;;
3841;SDS011;1936;47.074;15.336;2023-01-16T01:46:57;0.60;;;0.40;;
3841;SDS011;1936;47.074;15.336;2023-01-16T01:49:01;1.50;;;0.40;;
3841;SDS011;1936;47.074;15.336;2023-01-16T01:51:11;0.63;;;0.35;;
3841;SDS011;1936;47.074;15.336;2023-01-16T01:53:20;0.60;;;0.40;;
3841;SDS011;1936;47.074;15.336;2023-01-16T01:55:26;0.50;;;0.30;;
3841;SDS011;1936;47.074;15.336;2023-01-16T01:57:30;1.60;;;0.40;;
3841;SDS011;1936;47.074;15.336;2023-01-16T01:59:39;0.98;;;0.45;;
3841;SDS011;1936;47.074;15.336;2023-01-16T02:01:45;0.55;;;0.30;;
3841;SDS011;1936;47.074;15.336;2023-01-16T02:03:51;0.50;;;0.40;;
3841;SDS011;1936;47.074;15.336;2023-01-16T02:05:57;0.80;;;0.45;;
3841;SDS011;1936;47.074;15.336;2023-01-16T02:08:08;3.78;;;0.60;;
3841;SDS011;1936;47.074;15.336;2023-01-16T02:10:13;1.20;;;0.60;;
3841;SDS011;1936;47.074;15.336;2023-01-16T02:12:23;0.50;;;0.30;;
3841;SDS011;1936;47.074;15.336;2023-01-16T02:14:27;0.50;;;0.30;;
3841;SDS011;1936;47.074;15.336;2023-01-16T02:16:34;0.50;;;0.35;;
3841;SDS011;1936;47.074;15.336;2023-01-16T02:18:57;0.70;;;0.40;;
3841;SDS011;1936;47.074;15.336;2023-01-16T02:21:23;0.50;;;0.40;;
3841;SDS011;1936;47.074;15.336;2023-01-16T02:24:12;0.80;;;0.40;;
3841;SDS011;1936;47.074;15.336;2023-01-16T02:31:37;0.93;;;0.40;;
3841;SDS011;1936;47.074;15.336;2023-01-16T02:33:50;0.60;;;0.40;;
3841;SDS011;1936;47.074;15.336;2023-01-16T02:36:03;1.08;;;0.60;;
3841;SDS011;1936;47.074;15.336;2023-01-16T02:38:17;1.98;;;0.40;;
3841;SDS011;1936;47.074;15.336;2023-01-16T02:40:30;1.05;;;0.50;;
3841;SDS011;1936;47.074;15.336;2023-01-16T02:42:42;0.60;;;0.40;;
3841;SDS011;1936;47.074;15.336;2023-01-16T02:44:49;0.65;;;0.50;;
3841;SDS011;1936;47.074;15.336;2023-01-16T02:47:03;0.93;;;0.40;;
3841;SDS011;1936;47.074;15.336;2023-01-16T02:49:14;0.70;;;0.45;;
3841;SDS011;1936;47.074;15.336;2023-01-16T02:51:23;0.60;;;0.40;;
3841;SDS011;1936;47.074;15.336;2023-01-16T02:53:36;0.60;;;0.40;;
3841;SDS011;1936;47.074;15.336;2023-01-16T02:55:45;0.70;;;0.45;;
3841;SDS011;1936;47.074;15.336;2023-01-16T02:57:53;0.80;;;0.50;;
3841;SDS011;1936;47.074;15.336;2023-01-16T03:00:02;0.80;;;0.50;;
3841;SDS011;1936;47.074;15.336;2023-01-16T03:02:08;1.83;;;0.40;;
3841;SDS011;1936;47.074;15.336;2023-01-16T03:06:43;0.75;;;0.50;;
3841;SDS011;1936;47.074;15.336;2023-01-16T03:08:52;1.77;;;0.70;;
3841;SDS011;1936;47.074;15.336;2023-01-16T03:11:16;0.70;;;0.40;;
3841;SDS011;1936;47.074;15.336;2023-01-16T03:13:27;0.82;;;0.50;;
3841;SDS011;1936;47.074;15.336;2023-01-16T03:15:44;2.38;;;0.60;;
3841;SDS011;1936;47.074;15.336;2023-01-16T03:17:57;0.98;;;0.57;;
3841;SDS011;1936;47.074;15.336;2023-01-16T03:20:13;0.73;;;0.60;;
3841;SDS011;1936;47.074;15.336;2023-01-16T03:22:29;0.88;;;0.65;;
3841;SDS011;1936;47.074;15.336;2023-01-16T03:24:41;0.70;;;0.50;;
3841;SDS011;1936;47.074;15.336;2023-01-16T03:27:12;1.02;;;0.85;;
3841;SDS011;1936;47.074;15.336;2023-01-16T03:29:32;0.80;;;0.65;;
3841;SDS011;1936;47.074;15.336;2023-01-16T03:31:43;0.93;;;0.75;;
3841;SDS011;1936;47.074;15.336;2023-01-16T03:33:54;0.70;;;0.50;;
3841;SDS011;1936;47.074;15.336;2023-01-16T03:36:10;1.63;;;0.57;;
3841;SDS011;1936;47.074;15.336;2023-01-16T03:38:17;0.60;;;0.50;;
3841;SDS011;1936;47.074;15.336;2023-01-16T03:40:24;0.60;;;0.50;;
3841;SDS011;1936;47.074;15.336;2023-01-16T03:42:32;0.88;;;0.50;;
3841;SDS011;1936;47.074;15.336;2023-01-16T03:44:42;1.33;;;0.50;;
3841;SDS011;1936;47.074;15.336;2023-01-16T03:46:51;0.65;;;0.57;;
3841;SDS011;1936;47.074;15.336;2023-01-16T03:48:56;0.65;;;0.50;;
3841;SDS011;1936;47.074;15.336;2023-01-16T03:51:05;0.82;;;0.50;;
3841;SDS011;1936;47.074;15.336;2023-01-16T03:53:10;0.80;;;0.57;;
3841;SDS011;1936;47.074;15.336;2023-01-16T03:55:18;0.60;;;0.50;;
3841;SDS011;1936;47.074;15.336;2023-01-16T03:57:27;0.95;;;0.85;;
3841;SDS011;1936;47.074;15.336;2023-01-16T03:59:34;0.93;;;0.50;;
3841;SDS011;1936;47.074;15.336;2023-01-16T04:01:41;1.33;;;0.50;;
3841;SDS011;1936;47.074;15.336;2023-01-16T04:03:54;0.63;;;0.40;;
3841;SDS011;1936;47.074;15.336;2023-01-16T04:06:05;0.90;;;0.55;;
3841;SDS011;1936;47.074;15.336;2023-01-16T04:08:12;0.90;;;0.63;;
3841;SDS011;1936;47.074;15.336;2023-01-16T04:10:21;0.80;;;0.50;;
3841;SDS011;1936;47.074;15.336;2023-01-16T04:12:28;0.55;;;0.40;;
3841;SDS011;1936;47.074;15.336;2023-01-16T04:14:35;0.52;;;0.50;;
3841;SDS011;1936;47.074;15.336;2023-01-16T04:16:43;0.68;;;0.50;;
3841;SDS011;1936;47.074;15.336;2023-01-16T04:18:47;0.60;;;0.47;;
3841;SDS011;1936;47.074;15.336;2023-01-16T04:20:54;0.82;;;0.47;;
3841;SDS011;1936;47.074;15.336;2023-01-16T04:22:57;0.85;;;0.63;;
3841;SDS011;1936;47.074;15.336;2023-01-16T04:25:01;0.88;;;0.77;;
3841;SDS011;1936;47.074;15.336;2023-01-16T04:27:06;0.85;;;0.50;;
3841;SDS011;1936;47.074;15.336;2023-01-16T04:29:09;0.50;;;0.40;;
3841;SDS011;1936;47.074;15.336;2023-01-16T04:31:13;1.08;;;0.60;;
3841;SDS011;1936;47.074;15.336;2023-01-16T04:33:16;1.10;;;0.57;;
3841;SDS011;1936;47.074;15.336;2023-01-16T04:35:20;0.70;;;0.40;;
3841;SDS011;1936;47.074;15.336;2023-01-16T04:37:25;0.85;;;0.52;;
3841;SDS011;1936;47.074;15.336;2023-01-16T04:39:28;1.23;;;0.60;;
3841;SDS011;1936;47.074;15.336;2023-01-16T04:41:31;1.40;;;1.10;;
3841;SDS011;1936;47.074;15.336;2023-01-16T04:43:41;0.90;;;0.82;;
3841;SDS011;1936;47.074;15.336;2023-01-16T04:45:45;0.90;;;0.70;;
3841;SDS011;1936;47.074;15.336;2023-01-16T04:47:49;3.20;;;1.85;;
3841;SDS011;1936;47.074;15.336;2023-01-16T04:49:53;2.97;;;1.85;;
3841;SDS011;1936;47.074;15.336;2023-01-16T04:51:57;5.68;;;3.88;;
3841;SDS011;1936;47.074;15.336;2023-01-16T04:54:02;12.25;;;4.43;;
3841;SDS011;1936;47.074;15.336;2023-01-16T04:56:06;11.23;;;5.13;;
3841;SDS011;1936;47.074;15.336;2023-01-16T04:58:10;3.63;;;1.77;;
3841;SDS011;1936;47.074;15.336;2023-01-16T05:00:13;2.30;;;1.70;;
3841;SDS011;1936;47.074;15.336;2023-01-16T05:02:17;0.95;;;0.70;;
3841;SDS011;1936;47.074;15.336;2023-01-16T05:04:21;1.88;;;0.80;;
3841;SDS011;1936;47.074;15.336;2023-01-16T05:06:24;1.25;;;0.73;;
3841;SDS011;1936;47.074;15.336;2023-01-16T05:08:27;0.50;;;0.50;;
3841;SDS011;1936;47.074;15.336;2023-01-16T05:10:33;0.85;;;0.60;;
3841;SDS011;1936;47.074;15.336;2023-01-16T05:12:36;2.20;;;0.80;;
3841;SDS011;1936;47.074;15.336;2023-01-16T05:14:42;1.30;;;0.95;;
3841;SDS011;1936;47.074;15.336;2023-01-16T05:16:46;0.90;;;0.70;;
3841;SDS011;1936;47.074;15.336;2023-01-16T05:18:49;0.93;;;0.60;;
3841;SDS011;1936;47.074;15.336;2023-01-16T05:20:52;2.00;;;1.00;;
3841;SDS011;1936;47.074;15.336;2023-01-16T05:22:57;1.83;;;1.23;;
3841;SDS011;1936;47.074;15.336;2023-01-16T05:25:01;1.25;;;1.15;;
3841;SDS011;1936;47.074;15.336;2023-01-16T05:27:05;4.15;;;2.65;;
3841;SDS011;1936;47.074;15.336;2023-01-16T05:29:09;3.70;;;3.28;;
3841;SDS011;1936;47.074;15.336;2023-01-16T05:31:12;5.07;;;3.78;;
3841;SDS011;1936;47.074;15.336;2023-01-16T05:33:15;8.30;;;5.63;;
3841;SDS011;1936;47.074;15.336;2023-01-16T05:35:19;5.18;;;4.68;;
3841;SDS011;1936;47.074;15.336;2023-01-16T05:37:22;4.68;;;3.75;;
3841;SDS011;1936;47.074;15.336;2023-01-16T05:39:26;4.03;;;3.63;;
3841;SDS011;1936;47.074;15.336;2023-01-16T05:41:29;4.80;;;3.50;;
3841;SDS011;1936;47.074;15.336;2023-01-16T05:43:34;4.22;;;2.90;;
3841;SDS011;1936;47.074;15.336;2023-01-16T05:45:37;3.80;;;3.40;;
3841;SDS011;1936;47.074;15.336;2023-01-16T05:47:41;4.35;;;3.28;;
3841;SDS011;1936;47.074;15.336;2023-01-16T05:49:46;4.55;;;2.92;;
3841;SDS011;1936;47.074;15.336;2023-01-16T05:51:49;5.38;;;3.75;;
3841;SDS011;1936;47.074;15.336;2023-01-16T05:53:53;4.00;;;2.58;;
3841;SDS011;1936;47.074;15.336;2023-01-16T05:55:56;2.40;;;2.20;;
3841;SDS011;1936;47.074;15.336;2023-01-16T05:58:00;4.28;;;3.50;;
3841;SDS011;1936;47.074;15.336;2023-01-16T06:00:06;6.80;;;4.32;;
3841;SDS011;1936;47.074;15.336;2023-01-16T06:02:10;6.03;;;4.30;;
3841;SDS011;1936;47.074;15.336;2023-01-16T06:04:14;4.03;;;3.63;;
3841;SDS011;1936;47.074;15.336;2023-01-16T06:06:19;3.67;;;2.55;;
3841;SDS011;1936;47.074;15.336;2023-01-16T06:08:23;3.67;;;2.50;;
3841;SDS011;1936;47.074;15.336;2023-01-16T06:10:26;3.13;;;2.83;;
3841;SDS011;1936;47.074;15.336;2023-01-16T06:12:30;7.63;;;2.50;;
3841;SDS011;1936;47.074;15.336;2023-01-16T06:14:35;2.55;;;2.35;;
3841;SDS011;1936;47.074;15.336;2023-01-16T06:16:39;2.22;;;2.03;;
3841;SDS011;1936;47.074;15.336;2023-01-16T06:18:43;2.83;;;2.10;;
3841;SDS011;1936;47.074;15.336;2023-01-16T06:20:47;1.80;;;1.52;;
3841;SDS011;1936;47.074;15.336;2023-01-16T06:22:50;2.35;;;1.55;;
3841;SDS011;1936;47.074;15.336;2023-01-16T06:24:54;1.73;;;1.50;;
3841;SDS011;1936;47.074;15.336;2023-01-16T06:26:57;1.35;;;1.25;;
3841;SDS011;1936;47.074;15.336;2023-01-16T06:29:01;2.22;;;2.03;;
3841;SDS011;1936;47.074;15.336;2023-01-16T06:31:05;2.45;;;1.27;;
3841;SDS011;1936;47.074;15.336;2023-01-16T06:33:10;1.20;;;1.10;;
3841;SDS011;1936;47.074;15.336;2023-01-16T06:35:13;2.28;;;1.50;;
3841;SDS011;1936;47.074;15.336;2023-01-16T06:37:17;3.30;;;1.40;;
3841;SDS011;1936;47.074;15.336;2023-01-16T06:39:21;1.52;;;1.42;;
3841;SDS011;1936;47.074;15.336;2023-01-16T06:41:24;1.55;;;1.45;;
3841;SDS011;1936;47.074;15.336;2023-01-16T06:43:27;1.17;;;1.00;;
3841;SDS011;1936;47.074;15.336;2023-01-16T06:45:31;6.30;;;1.80;;
3841;SDS011;1936;47.074;15.336;2023-01-16T06:47:34;3.67;;;1.55;;
3841;SDS011;1936;47.074;15.336;2023-01-16T06:49:39;1.83;;;1.30;;
3841;SDS011;1936;47.074;15.336;2023-01-16T06:51:42;1.80;;;1.70;;
3841;SDS011;1936;47.074;15.336;2023-01-16T06:53:46;4.35;;;3.80;;
3841;SDS011;1936;47.074;15.336;2023-01-16T06:55:49;4.85;;;3.78;;
3841;SDS011;1936;47.074;15.336;2023-01-16T06:57:53;2.10;;;1.90;;
3841;SDS011;1936;47.074;15.336;2023-01-16T06:59:56;1.73;;;1.50;;
3841;SDS011;1936;47.074;15.336;2023-01-16T07:01:59;2.00;;;1.65;;
3841;SDS011;1936;47.074;15.336;2023-01-16T07:04:03;2.92;;;2.40;;
3841;SDS011;1936;47.074;15.336;2023-01-16T07:06:09;2.33;;;2.00;;
3841;SDS011;1936;47.074;15.336;2023-01-16T07:08:14;2.00;;;1.58;;
3841;SDS011;1936;47.074;15.336;2023-01-16T07:10:17;3.13;;;2.60;;
3841;SDS011;1936;47.074;15.336;2023-01-16T07:12:22;3.05;;;2.53;;
3841;SDS011;1936;47.074;15.336;2023-01-16T07:14:25;2.03;;;1.80;;
3841;SDS011;1936;47.074;15.336;2023-01-16T07:16:46;2.13;;;1.92;;
3841;SDS011;1936;47.074;15.336;2023-01-16T07:19:07;2.08;;;1.80;;
3841;SDS011;1936;47.074;15.336;2023-01-16T07:21:33;2.38;;;2.03;;
3841;SDS011;1936;47.074;15.336;2023-01-16T07:23:56;2.70;;;2.33;;
3841;SDS011;1936;47.074;15.336;2023-01-16T07:26:02;4.65;;;4.25;;
3841;SDS011;1936;47.074;15.336;2023-01-16T07:28:08;5.13;;;4.07;;
3841;SDS011;1936;47.074;15.336;2023-01-16T07:30:12;4.22;;;3.60;;
3841;SDS011;1936;47.074;15.336;2023-01-16T07:32:16;3.83;;;3.40;;
3841;SDS011;1936;47.074;15.336;2023-01-16T07:34:20;3.63;;;2.28;;
3841;SDS011;1936;47.074;15.336;2023-01-16T07:36:23;2.80;;;2.10;;
3841;SDS011;1936;47.074;15.336;2023-01-16T07:38:28;2.58;;;2.38;;
3841;SDS011;1936;47.074;15.336;2023-01-16T07:40:32;2.38;;;2.15;;
3841;SDS011;1936;47.074;15.336;2023-01-16T07:42:35;2.33;;;2.05;;
3841;SDS011;1936;47.074;15.336;2023-01-16T07:44:39;2.35;;;2.15;;
3841;SDS011;1936;47.074;15.336;2023-01-16T07:46:42;2.88;;;1.85;;
3841;SDS011;1936;47.074;15.336;2023-01-16T07:48:46;1.90;;;1.50;;
3841;SDS011;1936;47.074;15.336;2023-01-16T07:50:50;2.38;;;2.13;;
3841;SDS011;1936;47.074;15.336;2023-01-16T07:52:58;2.60;;;2.40;;
3841;SDS011;1936;47.074;15.336;2023-01-16T07:55:03;3.40;;;3.10;;
3841;SDS011;1936;47.074;15.336;2023-01-16T07:57:07;3.40;;;2.92;;
3841;SDS011;1936;47.074;15.336;2023-01-16T07:59:10;3.67;;;3.28;;
3841;SDS011;1936;47.074;15.336;2023-01-16T08:01:14;2.67;;;2.40;;
3841;SDS011;1936;47.074;15.336;2023-01-16T08:03:17;3.13;;;2.58;;
3841;SDS011;1936;47.074;15.336;2023-01-16T08:05:21;2.97;;;2.03;;
3841;SDS011;1936;47.074;15.336;2023-01-16T08:07:24;3.33;;;2.88;;
3841;SDS011;1936;47.074;15.336;2023-01-16T08:09:28;2.80;;;2.45;;
3841;SDS011;1936;47.074;15.336;2023-01-16T08:11:33;2.35;;;2.13;;
3841;SDS011;1936;47.074;15.336;2023-01-16T08:13:40;2.15;;;1.70;;
3841;SDS011;1936;47.074;15.336;2023-01-16T08:15:43;2.05;;;1.90;;
3841;SDS011;1936;47.074;15.336;2023-01-16T08:17:52;2.85;;;1.67;;
3841;SDS011;1936;47.074;15.336;2023-01-16T08:19:55;1.50;;;1.25;;
3841;SDS011;1936;47.074;15.336;2023-01-16T08:21:58;2.03;;;1.48;;
3841;SDS011;1936;47.074;15.336;2023-01-16T08:24:02;3.75;;;1.52;;
3841;SDS011;1936;47.074;15.336;2023-01-16T08:26:05;2.38;;;2.17;;
3841;SDS011;1936;47.074;15.336;2023-01-16T08:28:10;2.05;;;1.67;;
3841;SDS011;1936;47.074;15.336;2023-01-16T08:30:14;1.63;;;1.30;;
3841;SDS011;1936;47.074;15.336;2023-01-16T08:32:20;1.88;;;1.75;;
3841;SDS011;1936;47.074;15.336;2023-01-16T08:34:23;2.28;;;1.85;;
3841;SDS011;1936;47.074;15.336;2023-01-16T08:36:27;1.80;;;1.70;;
3841;SDS011;1936;47.074;15.336;2023-01-16T08:38:30;3.20;;;1.75;;
3841;SDS011;1936;47.074;15.336;2023-01-16T08:40:34;2.00;;;1.80;;
3841;SDS011;1936;47.074;15.336;2023-01-16T08:42:37;2.80;;;1.85;;
3841;SDS011;1936;47.074;15.336;2023-01-16T08:44:59;2.50;;;2.05;;
3841;SDS011;1936;47.074;15.336;2023-01-16T08:47:21;2.45;;;1.52;;
3841;SDS011;1936;47.074;15.336;2023-01-16T08:49:43;2.38;;;2.00;;
3841;SDS011;1936;47.074;15.336;2023-01-16T08:52:05;2.83;;;2.63;;
3841;SDS011;1936;47.074;15.336;2023-01-16T08:54:09;2.65;;;2.45;;
3841;SDS011;1936;47.074;15.336;2023-01-16T08:56:12;2.30;;;2.10;;
3841;SDS011;1936;47.074;15.336;2023-01-16T08:58:16;2.53;;;2.33;;
3841;SDS011;1936;47.074;15.336;2023-01-16T09:00:24;3.00;;;2.47;;
3841;SDS011;1936;47.074;15.336;2023-01-16T09:02:27;2.20;;;1.80;;
3841;SDS011;1936;47.074;15.336;2023-01-16T09:04:34;2.38;;;2.17;;
3841;SDS011;1936;47.074;15.336;2023-01-16T09:06:41;2.65;;;2.45;;
3841;SDS011;1936;47.074;15.336;2023-01-16T09:08:44;2.80;;;2.50;;
3841;SDS011;1936;47.074;15.336;2023-01-16T09:10:48;2.60;;;2.40;;
3841;SDS011;1936;47.074;15.336;2023-01-16T09:13:05;2.75;;;2.50;;
3841;SDS011;1936;47.074;15.336;2023-01-16T09:15:37;3.10;;;2.45;;
3841;SDS011;1936;47.074;15.336;2023-01-16T09:17:40;3.05;;;2.55;;
3841;SDS011;1936;47.074;15.336;2023-01-16T09:19:44;2.58;;;2.35;;
3841;SDS011;1936;47.074;15.336;2023-01-16T09:21:47;3.40;;;2.67;;
3841;SDS011;1936;47.074;15.336;2023-01-16T09:23:50;1.60;;;1.50;;
3841;SDS011;1936;47.074;15.336;2023-01-16T09:25:54;2.60;;;2.40;;
3841;SDS011;1936;47.074;15.336;2023-01-16T09:27:57;2.40;;;1.95;;
3841;SDS011;1936;47.074;15.336;2023-01-16T09:30:02;2.03;;;1.92;;
3841;SDS011;1936;47.074;15.336;2023-01-16T09:32:08;1.55;;;1.40;;
3841;SDS011;1936;47.074;15.336;2023-01-16T09:34:12;1.63;;;1.50;;
3841;SDS011;1936;47.074;15.336;2023-01-16T09:36:16;2.13;;;1.70;;
3841;SDS011;1936;47.074;15.336;2023-01-16T09:38:20;2.20;;;1.92;;
3841;SDS011;1936;47.074;15.336;2023-01-16T09:40:23;1.98;;;1.88;;
3841;SDS011;1936;47.074;15.336;2023-01-16T09:42:30;1.88;;;1.70;;
3841;SDS011;1936;47.074;15.336;2023-01-16T09:44:59;2.08;;;1.88;;
3841;SDS011;1936;47.074;15.336;2023-01-16T09:47:08;2.20;;;1.90;;
3841;SDS011;1936;47.074;15.336;2023-01-16T09:49:14;1.83;;;1.73;;
3841;SDS011;1936;47.074;15.336;2023-01-16T09:51:23;1.45;;;1.35;;
3841;SDS011;1936;47.074;15.336;2023-01-16T09:53:32;2.00;;;1.40;;
3841;SDS011;1936;47.074;15.336;2023-01-16T09:55:58;2.00;;;1.83;;
3841;SDS011;1936;47.074;15.336;2023-01-16T09:58:20;1.90;;;1.50;;
3841;SDS011;1936;47.074;15.336;2023-01-16T10:00:40;2.00;;;1.80;;
3841;SDS011;1936;47.074;15.336;2023-01-16T10:02:46;1.92;;;1.60;;
3841;SDS011;1936;47.074;15.336;2023-01-16T10:04:49;4.15;;;2.35;;
3841;SDS011;1936;47.074;15.336;2023-01-16T10:06:58;2.38;;;1.38;;
3841;SDS011;1936;47.074;15.336;2023-01-16T10:09:22;1.75;;;1.40;;
3841;SDS011;1936;47.074;15.336;2023-01-16T10:11:34;5.20;;;2.03;;
3841;SDS011;1936;47.074;15.336;2023-01-16T10:16:15;3.47;;;1.88;;
3841;SDS011;1936;47.074;15.336;2023-01-16T10:18:30;2.20;;;2.00;;
3841;SDS011;1936;47.074;15.336;2023-01-16T10:20:46;2.30;;;2.10;;
3841;SDS011;1936;47.074;15.336;2023-01-16T10:23:00;2.13;;;1.90;;
3841;SDS011;1936;47.074;15.336;2023-01-16T10:25:18;1.63;;;1.38;;
3841;SDS011;1936;47.074;15.336;2023-01-16T10:27:28;2.20;;;1.73;;
3841;SDS011;1936;47.074;15.336;2023-01-16T10:29:39;5.25;;;2.28;;
3841;SDS011;1936;47.074;15.336;2023-01-16T10:31:50;4.95;;;3.63;;
3841;SDS011;1936;47.074;15.336;2023-01-16T10:34:02;4.47;;;3.13;;
3841;SDS011;1936;47.074;15.336;2023-01-16T10:36:10;4.43;;;3.20;;
3841;SDS011;1936;47.074;15.336;2023-01-16T10:38:20;2.90;;;2.65;;
3841;SDS011;1936;47.074;15.336;2023-01-16T10:40:31;3.63;;;2.30;;
3841;SDS011;1936;47.074;15.336;2023-01-16T10:42:35;2.80;;;2.30;;
3841;SDS011;1936;47.074;15.336;2023-01-16T10:44:58;2.53;;;2.33;;
3841;SDS011;1936;47.074;15.336;2023-01-16T10:47:30;1.90;;;1.80;;
3841;SDS011;1936;47.074;15.336;2023-01-16T10:49:54;2.50;;;2.30;;
3841;SDS011;1936;47.074;15.336;2023-01-16T10:51:59;2.40;;;2.10;;
3841;SDS011;1936;47.074;15.336;2023-01-16T10:54:05;2.35;;;1.85;;
3841;SDS011;1936;47.074;15.336;2023-01-16T10:56:16;2.92;;;2.20;;
3841;SDS011;1936;47.074;15.336;2023-01-16T10:58:22;2.92;;;2.08;;
3841;SDS011;1936;47.074;15.336;2023-01-16T11:00:30;1.60;;;1.50;;
3841;SDS011;1936;47.074;15.336;2023-01-16T11:02:38;2.60;;;2.15;;
3841;SDS011;1936;47.074;15.336;2023-01-16T11:04:43;1.83;;;1.65;;
3841;SDS011;1936;47.074;15.336;2023-01-16T11:06:47;2.30;;;2.10;;
3841;SDS011;1936;47.074;15.336;2023-01-16T11:08:52;3.00;;;1.85;;
3841;SDS011;1936;47.074;15.336;2023-01-16T11:10:57;2.13;;;1.58;;
3841;SDS011;1936;47.074;15.336;2023-01-16T11:13:01;2.63;;;2.10;;
3841;SDS011;1936;47.074;15.336;2023-01-16T11:15:23;2.53;;;2.15;;
3841;SDS011;1936;47.074;15.336;2023-01-16T11:17:51;3.10;;;2.30;;
3841;SDS011;1936;47.074;15.336;2023-01-16T11:20:13;2.72;;;1.92;;
3841;SDS011;1936;47.074;15.336;2023-01-16T11:22:22;2.30;;;1.58;;
3841;SDS011;1936;47.074;15.336;2023-01-16T11:24:30;3.58;;;2.25;;
3841;SDS011;1936;47.074;15.336;2023-01-16T11:26:35;4.05;;;2.20;;
3841;SDS011;1936;47.074;15.336;2023-01-16T11:28:39;1.90;;;1.75;;
3841;SDS011;1936;47.074;15.336;2023-01-16T11:30:48;1.70;;;1.52;;
3841;SDS011;1936;47.074;15.336;2023-01-16T11:32:56;2.00;;;1.50;;
3841;SDS011;1936;47.074;15.336;2023-01-16T11:35:00;2.30;;;1.85;;
3841;SDS011;1936;47.074;15.336;2023-01-16T11:37:05;1.70;;;1.60;;
3841;SDS011;1936;47.074;15.336;2023-01-16T11:39:17;2.30;;;1.95;;
3841;SDS011;1936;47.074;15.336;2023-01-16T11:41:24;1.70;;;1.60;;
3841;SDS011;1936;47.074;15.336;2023-01-16T11:43:31;2.92;;;2.08;;
3841;SDS011;1936;47.074;15.336;2023-01-16T11:45:55;3.35;;;1.42;;
3841;SDS011;1936;47.074;15.336;2023-01-16T11:48:05;2.00;;;1.80;;
3841;SDS011;1936;47.074;15.336;2023-01-16T11:50:48;2.22;;;1.77;;
3841;SDS011;1936;47.074;15.336;2023-01-16T11:52:52;4.45;;;2.13;;
3841;SDS011;1936;47.074;15.336;2023-01-16T11:54:56;3.25;;;1.75;;
3841;SDS011;1936;47.074;15.336;2023-01-16T11:57:13;8.65;;;3.40;;
3841;SDS011;1936;47.074;15.336;2023-01-16T11:59:33;2.03;;;1.50;;
3841;SDS011;1936;47.074;15.336;2023-01-16T12:01:52;1.63;;;1.52;;
3841;SDS011;1936;47.074;15.336;2023-01-16T12:04:21;1.90;;;1.55;;
3841;SDS011;1936;47.074;15.336;2023-01-16T12:06:36;1.90;;;1.08;;
3841;SDS011;1936;47.074;15.336;2023-01-16T12:08:50;1.95;;;1.85;;
3841;SDS011;1936;47.074;15.336;2023-01-16T12:11:08;2.92;;;2.30;;
3841;SDS011;1936;47.074;15.336;2023-01-16T12:13:16;4.50;;;2.67;;
3841;SDS011;1936;47.074;15.336;2023-01-16T12:15:42;2.97;;;2.40;;
3841;SDS011;1936;47.074;15.336;2023-01-16T12:17:55;2.70;;;2.33;;
3841;SDS011;1936;47.074;15.336;2023-01-16T12:20:16;2.95;;;2.60;;
3841;SDS011;1936;47.074;15.336;2023-01-16T12:22:38;2.35;;;2.15;;
3841;SDS011;1936;47.074;15.336;2023-01-16T12:25:01;2.70;;;2.50;;
3841;SDS011;1936;47.074;15.336;2023-01-16T12:27:12;3.35;;;2.22;;
3841;SDS011;1936;47.074;15.336;2023-01-16T12:29:37;2.28;;;2.05;;
3841;SDS011;1936;47.074;15.336;2023-01-16T12:34:39;2.30;;;2.03;;
3841;SDS011;1936;47.074;15.336;2023-01-16T12:37:07;1.77;;;1.67;;
3841;SDS011;1936;47.074;15.336;2023-01-16T12:39:21;1.90;;;1.60;;
3841;SDS011;1936;47.074;15.336;2023-01-16T12:41:33;1.73;;;1.58;;
3841;SDS011;1936;47.074;15.336;2023-01-16T12:44:05;1.65;;;1.55;;
3841;SDS011;1936;47.074;15.336;2023-01-16T12:46:18;2.35;;;1.75;;
3841;SDS011;1936;47.074;15.336;2023-01-16T12:48:36;2.20;;;1.70;;
3841;SDS011;1936;47.074;15.336;2023-01-16T12:50:52;1.38;;;1.25;;
3841;SDS011;1936;47.074;15.336;2023-01-16T12:53:12;2.28;;;1.88;;
3841;SDS011;1936;47.074;15.336;2023-01-16T12:55:34;2.13;;;1.65;;
3841;SDS011;1936;47.074;15.336;2023-01-16T12:58:01;2.03;;;1.70;;
3841;SDS011;1936;47.074;15.336;2023-01-16T13:00:14;1.50;;;1.17;;
3841;SDS011;1936;47.074;15.336;2023-01-16T13:02:21;1.70;;;1.60;;
3841;SDS011;1936;47.074;15.336;2023-01-16T13:04:36;2.15;;;1.52;;
3841;SDS011;1936;47.074;15.336;2023-01-16T13:06:45;2.17;;;1.98;;
3841;SDS011;1936;47.074;15.336;2023-01-16T13:08:51;2.33;;;1.58;;
3841;SDS011;1936;47.074;15.336;2023-01-16T13:11:04;2.13;;;1.60;;
3841;SDS011;1936;47.074;15.336;2023-01-16T13:13:31;1.45;;;1.35;;
3841;SDS011;1936;47.074;15.336;2023-01-16T13:15:39;1.50;;;1.40;;
3841;SDS011;1936;47.074;15.336;2023-01-16T13:17:45;2.00;;;1.52;;